Time;durP1;ratioP1;P1;durP2;ratioP2;P2;SDS_P1;SDS_P2;PMS_P1;PMS_P2;Temp;Humidity;BMP_temperature;BMP_pressure;BME280_temperature;BME280_humidity;BME280_pressure;Samples;Min_cycle;Max_cycle;Signal;HPM_P1;HPM_P2
2023/03/07 00:00:54;;;;;;;10.32;4.72;;;;;;;7.33;69.24;93851.44;5065580;28;20226;-77
2023/03/07 00:03:21;;;;;;;8.63;4.85;;;;;;;7.30;69.33;93851.28;5058800;28;20659;-78
2023/03/07 00:05:48;;;;;;;13.70;5.72;;;;;;;7.36;69.57;93850.81;5062308;28;20211;-78
2023/03/07 00:08:15;;;;;;;13.20;5.75;;;;;;;7.28;70.08;93858.91;5058302;28;20270;-78
2023/03/07 00:10:43;;;;;;;11.27;5.00;;;;;;;7.30;69.64;93852.09;5055172;28;20289;-76
2023/03/07 00:13:09;;;;;;;9.02;4.55;;;;;;;7.29;69.65;93855.09;5057779;28;20234;-79
2023/03/07 00:15:39;;;;;;;11.80;5.78;;;;;;;7.26;69.81;93844.97;5061775;28;20261;-77
2023/03/07 00:18:06;;;;;;;6.80;4.30;;;;;;;7.43;69.45;93850.28;5047998;28;20271;-80
2023/03/07 00:20:33;;;;;;;10.65;5.32;;;;;;;7.41;69.49;93831.72;5061422;28;20286;-78
2023/03/07 00:22:59;;;;;;;14.45;5.78;;;;;;;7.48;68.46;93836.63;5059850;28;20199;-78
2023/03/07 00:25:26;;;;;;;9.80;5.30;;;;;;;7.50;68.47;93829.00;5063952;28;20277;-78
2023/03/07 00:27:54;;;;;;;12.00;3.20;;;;;;;7.54;68.03;93824.50;5047954;28;20210;-77
2023/03/07 00:30:21;;;;;;;8.93;4.78;;;;;;;7.57;67.96;93823.88;5054054;28;20260;-80
2023/03/07 00:32:48;;;;;;;12.85;6.45;;;;;;;7.49;68.00;93828.22;5068138;28;20295;-78
2023/03/07 00:35:15;;;;;;;13.68;6.05;;;;;;;7.43;68.46;93826.03;5078677;28;20221;-77
2023/03/07 00:37:41;;;;;;;10.50;5.13;;;;;;;7.31;68.79;93812.47;5054772;28;20199;-77
2023/03/07 00:40:10;;;;;;;17.13;6.88;;;;;;;7.31;69.23;93820.56;5054853;28;20342;-77
2023/03/07 00:42:37;;;;;;;14.68;6.55;;;;;;;7.34;69.75;93825.28;5054762;28;20307;-78
2023/03/07 00:45:06;;;;;;;12.35;5.95;;;;;;;7.39;68.72;93827.78;5061560;28;20208;-77
2023/03/07 00:47:32;;;;;;;13.60;6.63;;;;;;;7.28;69.00;93822.00;5048733;28;20204;-78
2023/03/07 00:49:59;;;;;;;8.68;3.65;;;;;;;7.29;68.58;93812.81;5060734;28;20199;-77
2023/03/07 00:52:26;;;;;;;12.13;5.18;;;;;;;7.34;68.69;93814.53;5061753;28;20424;-77
2023/03/07 00:54:53;;;;;;;15.18;6.40;;;;;;;7.26;69.59;93820.72;5055199;28;20682;-77
2023/03/07 00:57:19;;;;;;;13.18;6.03;;;;;;;7.27;70.18;93820.41;5066974;28;20199;-77
2023/03/07 00:59:46;;;;;;;11.63;5.60;;;;;;;7.38;71.76;93831.63;5055419;28;20288;-78
2023/03/07 01:02:14;;;;;;;10.07;5.47;;;;;;;7.41;69.12;93822.84;5052629;28;20277;-78
2023/03/07 01:04:41;;;;;;;12.25;5.30;;;;;;;7.17;69.70;93820.78;5055986;28;20670;-77
2023/03/07 01:07:08;;;;;;;7.22;3.13;;;;;;;6.96;69.72;93804.59;5053799;28;20215;-76
2023/03/07 01:09:34;;;;;;;7.93;3.20;;;;;;;6.88;70.07;93813.50;5059176;28;20261;-74
2023/03/07 01:12:05;;;;;;;15.43;5.90;;;;;;;6.86;70.47;93818.41;5049841;28;20265;-77
2023/03/07 01:14:32;;;;;;;9.02;3.92;;;;;;;6.80;70.81;93822.41;5067695;28;20238;-78
2023/03/07 01:16:59;;;;;;;7.50;3.58;;;;;;;6.72;71.26;93805.19;5054319;28;20721;-78
2023/03/07 01:19:27;;;;;;;17.45;6.10;;;;;;;6.83;71.36;93804.84;5067917;28;20219;-78
2023/03/07 01:21:54;;;;;;;10.43;5.20;;;;;;;6.84;71.75;93807.19;5068067;28;20206;-78
2023/03/07 01:24:21;;;;;;;10.35;5.45;;;;;;;6.98;71.08;93807.75;5057632;28;20758;-77
2023/03/07 01:26:47;;;;;;;10.80;5.00;;;;;;;7.06;71.03;93798.84;5047181;28;20561;-77
2023/03/07 01:29:14;;;;;;;9.18;4.93;;;;;;;7.14;70.65;93789.91;5047234;28;20206;-77
2023/03/07 01:31:41;;;;;;;17.02;5.43;;;;;;;7.06;70.07;93781.91;5050846;28;20210;-77
2023/03/07 01:34:08;;;;;;;13.27;4.28;;;;;;;7.06;70.10;93793.47;5072597;28;20602;-77
2023/03/07 01:36:36;;;;;;;8.93;5.45;;;;;;;7.11;69.96;93787.88;5065745;28;20675;-76
2023/03/07 01:39:06;;;;;;;6.13;4.15;;;;;;;7.06;70.09;93782.69;5059313;28;20291;-77
2023/03/07 01:41:33;;;;;;;10.65;4.25;;;;;;;7.05;69.79;93773.03;5057416;28;20289;-76
2023/03/07 01:44:01;;;;;;;10.60;4.95;;;;;;;7.01;69.64;93774.78;5059921;28;20588;-77
2023/03/07 01:46:38;;;;;;;14.52;5.70;;;;;;;7.06;70.29;93776.50;5065178;28;20203;-78
2023/03/07 01:49:11;;;;;;;8.75;4.65;;;;;;;7.10;69.90;93794.41;5064597;28;20244;-77
2023/03/07 01:51:41;;;;;;;12.38;4.03;;;;;;;7.18;69.48;93783.88;5058905;28;20633;-77
2023/03/07 01:54:10;;;;;;;8.45;4.72;;;;;;;7.04;69.85;93776.84;5056614;28;20210;-77
2023/03/07 01:56:39;;;;;;;7.65;3.72;;;;;;;7.11;69.22;93785.19;5059336;28;20199;-77
2023/03/07 01:59:07;;;;;;;9.50;4.68;;;;;;;7.29;69.16;93795.84;5057238;28;20208;-77
2023/03/07 02:01:34;;;;;;;6.28;3.55;;;;;;;7.31;68.42;93793.63;5070832;28;20291;-76
2023/03/07 02:04:06;;;;;;;5.57;3.22;;;;;;;7.08;68.07;93780.47;5055009;28;20554;-77
2023/03/07 02:06:36;;;;;;;7.95;4.05;;;;;;;6.98;68.74;93771.94;5051129;28;20227;-77
2023/03/07 02:09:11;;;;;;;6.70;3.20;;;;;;;7.03;68.79;93783.34;5064476;28;20222;-77
2023/03/07 02:11:39;;;;;;;11.50;4.80;;;;;;;6.90;68.90;93784.34;5051171;28;20208;-78
2023/03/07 02:14:06;;;;;;;10.25;5.05;;;;;;;6.81;69.27;93798.97;5064139;28;20211;-77
2023/03/07 02:16:33;;;;;;;10.02;4.95;;;;;;;6.75;69.49;93793.78;5050577;28;20215;-77
2023/03/07 02:19:01;;;;;;;9.75;5.30;;;;;;;6.85;69.64;93789.91;5064098;28;20200;-77
2023/03/07 02:21:37;;;;;;;6.40;3.53;;;;;;;6.97;69.21;93778.47;5063109;28;20226;-78
2023/03/07 02:24:12;;;;;;;13.10;4.93;;;;;;;6.85;69.26;93775.66;5057295;28;20202;-78
2023/03/07 02:26:48;;;;;;;6.95;3.80;;;;;;;6.91;69.06;93777.06;5068724;28;20569;-77
2023/03/07 02:29:15;;;;;;;9.98;4.85;;;;;;;7.04;70.12;93774.16;5060918;28;20260;-78
2023/03/07 02:31:42;;;;;;;10.85;4.15;;;;;;;7.11;70.78;93771.72;5057605;28;20207;-78
2023/03/07 02:34:19;;;;;;;10.25;4.60;;;;;;;7.06;70.34;93782.69;5076111;28;20213;-78
2023/03/07 02:36:48;;;;;;;8.02;4.20;;;;;;;7.11;69.38;93790.56;5085599;28;20608;-77
2023/03/07 02:39:17;;;;;;;7.82;4.18;;;;;;;7.12;69.20;93785.97;5057605;28;20709;-77
2023/03/07 02:41:44;;;;;;;4.55;2.40;;;;;;;7.28;69.72;93775.41;5064028;28;20265;-75
2023/03/07 02:44:12;;;;;;;9.13;4.28;;;;;;;7.19;69.74;93780.06;5062891;28;20723;-78
2023/03/07 02:46:39;;;;;;;8.20;4.20;;;;;;;7.24;69.53;93793.38;5055820;28;20202;-78
2023/03/07 02:49:05;;;;;;;11.32;4.47;;;;;;;7.25;69.90;93789.53;5056919;28;20721;-77
2023/03/07 02:51:32;;;;;;;12.00;4.82;;;;;;;7.26;69.38;93791.09;5063338;28;20231;-77
2023/03/07 02:53:59;;;;;;;8.10;3.97;;;;;;;7.14;69.77;93779.16;5063646;28;20248;-77
2023/03/07 02:56:26;;;;;;;7.15;3.88;;;;;;;7.16;69.52;93775.34;5050181;28;20624;-76
2023/03/07 02:58:52;;;;;;;8.60;4.32;;;;;;;7.11;69.74;93779.78;5063065;28;20257;-77
2023/03/07 03:01:20;;;;;;;7.93;4.55;;;;;;;7.14;70.39;93792.59;5057555;28;20222;-77
2023/03/07 03:03:47;;;;;;;15.07;4.22;;;;;;;7.07;69.71;93778.09;5056560;28;20286;-78
2023/03/07 03:06:14;;;;;;;9.70;4.38;;;;;;;6.97;70.69;93784.63;5061893;28;20300;-77
2023/03/07 03:08:41;;;;;;;13.93;5.10;;;;;;;7.15;71.35;93790.72;5050566;28;20697;-77
2023/03/07 03:11:07;;;;;;;8.35;4.43;;;;;;;7.16;70.61;93794.19;5062288;28;20208;-78
2023/03/07 03:13:34;;;;;;;6.72;4.20;;;;;;;6.86;70.44;93772.66;5062818;28;20203;-80
2023/03/07 03:16:01;;;;;;;6.30;3.88;;;;;;;6.91;70.43;93767.09;5057850;28;20206;-76
2023/03/07 03:18:31;;;;;;;12.77;4.97;;;;;;;7.06;70.52;93781.91;5055573;28;20270;-77
2023/03/07 03:20:58;;;;;;;8.77;3.90;;;;;;;7.18;70.34;93783.88;5060807;28;20223;-76
2023/03/07 03:23:27;;;;;;;10.98;5.22;;;;;;;7.10;70.07;93783.63;5063124;28;20199;-77
2023/03/07 03:26:01;;;;;;;8.57;4.60;;;;;;;7.19;70.21;93782.78;5049518;28;20207;-78
2023/03/07 03:28:28;;;;;;;10.07;5.07;;;;;;;7.20;70.36;93774.38;5049731;28;20214;-77
2023/03/07 03:30:59;;;;;;;7.47;4.25;;;;;;;7.21;69.68;93773.25;5049423;28;20210;-77
2023/03/07 03:33:27;;;;;;;10.23;3.58;;;;;;;7.12;69.97;93770.59;5067053;28;20207;-76
2023/03/07 03:35:56;;;;;;;11.48;5.13;;;;;;;7.14;70.05;93768.38;5057474;28;20211;-77
2023/03/07 03:38:23;;;;;;;9.60;4.63;;;;;;;7.12;70.71;93773.28;5062263;28;20768;-77
2023/03/07 03:40:49;;;;;;;11.35;5.07;;;;;;;7.00;71.18;93767.81;5049526;28;20238;-78
2023/03/07 03:43:17;;;;;;;12.45;5.15;;;;;;;7.05;71.00;93791.88;5062759;28;20709;-77
2023/03/07 03:45:44;;;;;;;8.80;4.30;;;;;;;7.10;70.95;93794.41;5061691;28;20199;-77
2023/03/07 03:48:10;;;;;;;12.05;5.43;;;;;;;6.91;71.51;93794.00;5055563;28;20222;-77
2023/03/07 03:50:37;;;;;;;11.27;5.43;;;;;;;7.02;72.27;93794.44;5056944;28;20543;-77
2023/03/07 03:53:05;;;;;;;11.30;5.70;;;;;;;7.09;71.08;93787.44;5062520;28;20253;-76
2023/03/07 03:55:32;;;;;;;10.02;5.38;;;;;;;7.18;70.28;93802.75;5061730;28;20208;-78
2023/03/07 03:57:59;;;;;;;8.00;4.65;;;;;;;7.11;70.21;93795.94;5049598;28;20237;-76
2023/03/07 04:00:25;;;;;;;12.02;4.32;;;;;;;7.04;70.52;93795.69;5061493;28;20237;-76
2023/03/07 04:02:52;;;;;;;5.00;2.78;;;;;;;6.94;70.73;93796.06;5054386;28;20199;-80
2023/03/07 04:05:19;;;;;;;8.48;4.30;;;;;;;7.04;70.30;93789.50;5069079;28;20203;-79
2023/03/07 04:07:46;;;;;;;9.18;4.22;;;;;;;7.05;70.36;93783.81;5055222;28;20206;-76
2023/03/07 04:10:14;;;;;;;7.38;4.18;;;;;;;7.07;70.23;93784.28;5055300;28;21029;-78
2023/03/07 04:12:41;;;;;;;10.73;4.97;;;;;;;7.09;70.04;93787.44;5048575;28;20257;-79
2023/03/07 04:15:09;;;;;;;8.43;4.97;;;;;;;7.04;70.13;93786.81;5048481;28;20986;-78
2023/03/07 04:17:36;;;;;;;10.43;3.92;;;;;;;7.16;69.90;93791.50;5048300;28;20319;-76
2023/03/07 04:20:03;;;;;;;4.65;2.45;;;;;;;7.11;70.00;93795.94;5048488;28;20207;-77
2023/03/07 04:22:30;;;;;;;8.82;4.72;;;;;;;7.10;69.88;93788.22;5048650;28;20685;-78
2023/03/07 04:24:57;;;;;;;12.82;4.95;;;;;;;7.06;70.16;93790.75;5048153;28;20199;-77
2023/03/07 04:27:26;;;;;;;7.38;4.32;;;;;;;7.11;70.33;93795.94;5048338;28;20195;-77
2023/03/07 04:29:54;;;;;;;6.10;3.25;;;;;;;7.17;69.92;93788.47;5048660;28;20226;-76
2023/03/07 04:32:21;;;;;;;3.40;2.13;;;;;;;7.08;70.05;93780.47;5048053;28;20212;-76
2023/03/07 04:34:47;;;;;;;8.15;3.67;;;;;;;7.07;70.38;93795.03;5075315;28;20903;-78
2023/03/07 04:37:14;;;;;;;7.28;4.80;;;;;;;7.01;71.11;93790.94;5079306;28;20195;-77
2023/03/07 04:39:41;;;;;;;11.85;5.53;;;;;;;7.06;71.28;93812.31;5054580;28;20265;-77
2023/03/07 04:42:08;;;;;;;9.02;4.22;;;;;;;7.08;71.54;93807.41;5058805;28;20656;-78
2023/03/07 04:44:36;;;;;;;13.50;5.15;;;;;;;7.06;71.56;93809.63;5061630;28;20208;-77
2023/03/07 04:47:03;;;;;;;11.18;4.68;;;;;;;7.16;71.87;93813.81;5057863;28;20935;-76
2023/03/07 04:49:30;;;;;;;10.65;4.80;;;;;;;7.07;72.69;93810.41;5054555;28;20972;-77
2023/03/07 04:51:56;;;;;;;28.42;11.75;;;;;;;6.87;72.57;93814.59;5057863;28;20277;-81
2023/03/07 04:54:23;;;;;;;5.38;3.20;;;;;;;6.91;73.04;93820.16;5058802;28;20972;-76
2023/03/07 04:56:50;;;;;;;6.63;3.47;;;;;;;6.84;73.41;93826.03;5048609;28;20642;-78
2023/03/07 04:59:17;;;;;;;8.18;4.30;;;;;;;6.69;74.11;93815.81;5061266;28;20261;-77
2023/03/07 05:01:45;;;;;;;17.60;7.60;;;;;;;6.65;74.56;93809.50;5060125;28;20315;-77
2023/03/07 05:04:12;;;;;;;14.20;6.65;;;;;;;6.64;74.87;93816.78;5059961;28;20746;-77
2023/03/07 05:06:39;;;;;;;12.30;4.25;;;;;;;6.70;75.14;93820.06;5066367;28;20364;-76
2023/03/07 05:09:06;;;;;;;13.23;6.18;;;;;;;6.74;75.44;93819.09;5054583;28;20301;-78
2023/03/07 05:11:32;;;;;;;12.40;4.90;;;;;;;6.96;74.95;93819.97;5057080;28;20333;-81
2023/03/07 05:13:59;;;;;;;10.45;5.22;;;;;;;7.06;74.34;93825.78;5063131;28;20731;-79
2023/03/07 05:16:26;;;;;;;12.02;5.90;;;;;;;6.95;74.06;93829.94;5056189;28;20200;-79
2023/03/07 05:18:54;;;;;;;16.65;6.00;;;;;;;6.88;74.55;93823.47;5066814;28;20268;-79
2023/03/07 05:21:21;;;;;;;10.13;5.18;;;;;;;6.84;75.07;93828.72;5061111;28;20230;-79
2023/03/07 05:23:47;;;;;;;16.58;6.85;;;;;;;7.06;74.56;93833.06;5048613;28;20203;-79
2023/03/07 05:26:14;;;;;;;16.13;6.22;;;;;;;7.15;74.25;93833.78;5060820;28;20214;-78
2023/03/07 05:28:41;;;;;;;13.75;5.75;;;;;;;7.08;74.37;93823.53;5055365;28;20273;-79
2023/03/07 05:31:08;;;;;;;14.70;6.13;;;;;;;7.07;74.49;93824.66;5060307;28;20658;-78
2023/03/07 05:33:35;;;;;;;15.48;6.80;;;;;;;7.11;74.63;93824.78;5071579;28;20195;-80
2023/03/07 05:36:04;;;;;;;14.85;6.65;;;;;;;7.26;74.34;93828.81;5074310;28;20661;-79
2023/03/07 05:38:30;;;;;;;21.23;6.65;;;;;;;7.37;73.70;93830.03;5055018;28;20738;-79
2023/03/07 05:40:57;;;;;;;21.80;6.72;;;;;;;7.30;73.67;93829.75;5053493;28;20227;-77
2023/03/07 05:43:24;;;;;;;12.23;6.20;;;;;;;7.52;73.66;93834.81;5067894;28;20294;-79
2023/03/07 05:45:51;;;;;;;15.55;6.95;;;;;;;7.60;74.06;93841.28;5068240;28;20210;-79
2023/03/07 05:48:18;;;;;;;11.05;5.53;;;;;;;7.61;72.80;93840.97;5060689;28;20662;-80
2023/03/07 05:50:44;;;;;;;10.18;5.35;;;;;;;7.60;73.07;93843.97;5061500;28;20276;-79
2023/03/07 05:53:13;;;;;;;14.10;5.13;;;;;;;7.60;72.83;93855.56;5055134;28;20203;-80
2023/03/07 05:55:39;;;;;;;13.65;6.15;;;;;;;7.68;73.06;93857.38;5054443;28;20195;-79
2023/03/07 05:58:06;;;;;;;21.48;7.45;;;;;;;7.78;72.70;93858.94;5060766;28;20208;-80
2023/03/07 06:00:33;;;;;;;12.07;5.80;;;;;;;7.77;71.92;93849.25;5061824;28;20203;-81
2023/03/07 06:03:02;;;;;;;13.73;5.53;;;;;;;7.57;72.40;93845.44;5059089;28;20270;-84
2023/03/07 06:05:28;;;;;;;11.50;5.20;;;;;;;7.44;72.79;93841.06;5054806;28;20319;-80
2023/03/07 06:07:55;;;;;;;12.65;5.70;;;;;;;7.37;73.40;93846.19;5060665;28;20203;-80
2023/03/07 06:10:24;;;;;;;15.85;6.00;;;;;;;7.48;73.14;93847.41;5061967;28;20280;-81
2023/03/07 06:12:51;;;;;;;10.95;5.65;;;;;;;7.54;72.94;93851.47;5057433;28;20203;-82
2023/03/07 06:15:18;;;;;;;15.23;5.55;;;;;;;7.70;72.71;93857.84;5056650;28;20206;-78
2023/03/07 06:17:45;;;;;;;12.43;6.60;;;;;;;7.63;72.20;93854.91;5069221;28;20227;-79
2023/03/07 06:20:13;;;;;;;13.00;6.18;;;;;;;7.95;71.58;93855.28;5054116;28;20549;-79
2023/03/07 06:22:39;;;;;;;11.48;6.50;;;;;;;8.14;70.69;93848.31;5059545;28;20698;-85
2023/03/07 06:25:08;;;;;;;11.43;5.78;;;;;;;9.52;67.21;93849.47;5057119;28;20260;-81
2023/03/07 06:27:37;;;;;;;13.25;5.78;;;;;;;11.56;61.40;93837.53;5051291;28;20790;-79
2023/03/07 06:30:07;;;;;;;12.75;5.10;;;;;;;11.97;58.17;93828.00;5056972;28;20671;-79
2023/03/07 06:32:34;;;;;;;13.18;6.40;;;;;;;12.81;55.99;93839.75;5062550;28;20221;-79
2023/03/07 06:35:01;;;;;;;18.75;7.70;;;;;;;13.68;54.12;93834.59;5079106;28;20241;-80
2023/03/07 06:37:27;;;;;;;15.00;6.05;;;;;;;13.71;54.13;93840.09;5059542;28;20249;-79
2023/03/07 06:39:55;;;;;;;11.48;5.78;;;;;;;13.24;53.73;93832.38;5058659;28;20298;-79
2023/03/07 06:42:22;;;;;;;14.68;7.07;;;;;;;12.63;55.74;93833.19;5060818;28;20300;-80
2023/03/07 06:44:50;;;;;;;18.23;7.13;;;;;;;12.53;56.54;93847.38;5051885;28;20666;-79
2023/03/07 06:47:16;;;;;;;17.20;6.70;;;;;;;12.77;56.08;93849.00;5054963;28;20281;-80
2023/03/07 06:49:43;;;;;;;12.50;7.07;;;;;;;13.37;54.30;93858.25;5051063;28;20285;-81
2023/03/07 06:52:10;;;;;;;10.35;5.85;;;;;;;13.00;54.10;93859.88;5063020;28;20210;-79
2023/03/07 06:54:37;;;;;;;11.82;5.97;;;;;;;11.56;57.32;93853.81;5071528;28;20918;-80
2023/03/07 06:57:04;;;;;;;12.57;5.97;;;;;;;10.47;61.23;93856.09;5059231;28;20212;-80
2023/03/07 06:59:30;;;;;;;11.45;6.30;;;;;;;10.61;61.09;93851.06;5057670;28;20215;-77
2023/03/07 07:02:01;;;;;;;11.43;5.43;;;;;;;10.73;60.86;93860.25;5058274;28;20241;-78
2023/03/07 07:04:28;;;;;;;8.02;4.72;;;;;;;11.01;59.90;93852.88;5069116;28;20215;-79
2023/03/07 07:06:55;;;;;;;13.30;5.95;;;;;;;11.81;57.95;93855.19;5056893;28;20203;-79
2023/03/07 07:09:22;;;;;;;9.73;5.07;;;;;;;11.36;58.23;93851.00;5051296;28;20195;-81
2023/03/07 07:11:49;;;;;;;10.93;5.70;;;;;;;10.98;59.18;93853.56;5070086;28;20276;-84
2023/03/07 07:14:15;;;;;;;13.82;6.00;;;;;;;10.84;60.30;93850.47;5056616;28;20203;-77
2023/03/07 07:16:42;;;;;;;9.40;5.47;;;;;;;10.21;61.70;93858.47;5056644;28;20273;-78
2023/03/07 07:19:10;;;;;;;12.98;5.88;;;;;;;10.13;62.57;93862.03;5062101;28;20393;-79
2023/03/07 07:21:37;;;;;;;14.20;7.82;;;;;;;9.70;63.33;93868.13;5068430;28;20215;-78
2023/03/07 07:24:04;;;;;;;9.40;4.75;;;;;;;9.56;64.17;93852.28;5062524;28;20881;-78
2023/03/07 07:26:31;;;;;;;10.93;4.85;;;;;;;9.56;64.64;93857.69;5062519;28;20230;-79
2023/03/07 07:28:58;;;;;;;9.10;5.72;;;;;;;9.68;64.45;93860.38;5057520;28;20729;-78
2023/03/07 07:31:24;;;;;;;17.92;5.82;;;;;;;10.07;64.32;93868.84;5068751;28;20203;-78
2023/03/07 07:33:51;;;;;;;9.85;4.90;;;;;;;10.56;62.32;93867.56;5061040;28;20207;-76
2023/03/07 07:36:19;;;;;;;14.10;4.72;;;;;;;10.38;62.72;93866.31;5056365;28;20215;-76
2023/03/07 07:38:46;;;;;;;15.00;7.97;;;;;;;10.31;63.03;93863.38;5048720;28;20253;-76
2023/03/07 07:41:13;;;;;;;9.38;4.53;;;;;;;10.04;63.21;93873.03;5066812;28;20567;-80
2023/03/07 07:43:40;;;;;;;12.52;6.22;;;;;;;10.73;62.66;93861.03;5069955;28;20728;-79
2023/03/07 07:46:07;;;;;;;9.48;5.05;;;;;;;10.60;61.53;93860.31;5056944;28;20207;-79
2023/03/07 07:48:34;;;;;;;10.00;4.95;;;;;;;11.05;60.65;93867.28;5070076;28;20713;-80
2023/03/07 07:51:01;;;;;;;11.70;6.40;;;;;;;11.37;59.04;93868.84;5055766;28;20204;-81
2023/03/07 07:53:30;;;;;;;8.38;4.75;;;;;;;11.37;59.01;93868.06;5061377;28;20204;-81
2023/03/07 07:55:57;;;;;;;9.57;4.15;;;;;;;11.47;58.33;93861.34;5052539;28;20393;-81
2023/03/07 07:58:24;;;;;;;7.90;4.65;;;;;;;11.70;57.66;93875.84;5070393;28;20244;-79
2023/03/07 08:00:51;;;;;;;9.35;3.65;;;;;;;11.15;58.39;93882.25;5054350;28;20270;-80
2023/03/07 08:03:17;;;;;;;8.23;4.07;;;;;;;11.52;57.59;93875.41;5059146;28;20871;-79
2023/03/07 08:05:46;;;;;;;10.68;4.03;;;;;;;11.91;56.87;93859.25;5056533;28;20203;-80
2023/03/07 08:08:13;;;;;;;6.28;3.78;;;;;;;12.22;55.46;93863.81;5059881;28;20203;-80
2023/03/07 08:10:42;;;;;;;12.48;4.45;;;;;;;12.23;55.85;93857.25;5053222;28;20202;-79
2023/03/07 08:13:11;;;;;;;6.68;4.00;;;;;;;12.54;54.70;93859.81;5070249;28;20230;-81
2023/03/07 08:15:38;;;;;;;6.75;3.33;;;;;;;12.56;53.88;93862.97;5055861;28;20211;-82
2023/03/07 08:18:05;;;;;;;9.98;6.03;;;;;;;12.59;54.09;93859.50;5068576;28;20721;-80
2023/03/07 08:20:32;;;;;;;8.40;4.00;;;;;;;13.04;53.18;93855.28;5054877;28;20265;-80
2023/03/07 08:22:58;;;;;;;13.02;4.50;;;;;;;13.10;52.16;93864.75;5058362;28;20648;-81
2023/03/07 08:25:25;;;;;;;11.10;5.82;;;;;;;12.79;52.19;93861.06;5062762;28;20208;-83
2023/03/07 08:27:56;;;;;;;8.63;5.75;;;;;;;12.42;53.90;93865.41;5061292;28;20199;-79
2023/03/07 08:30:25;;;;;;;12.50;5.03;;;;;;;12.29;53.43;93870.19;5062313;28;20319;-83
2023/03/07 08:32:53;;;;;;;7.78;3.72;;;;;;;12.90;52.21;93860.47;5048433;28;20273;-80
2023/03/07 08:35:20;;;;;;;8.13;3.85;;;;;;;13.04;52.36;93858.81;5049463;28;20575;-80
2023/03/07 08:37:48;;;;;;;7.68;5.25;;;;;;;12.50;53.43;93852.72;5064059;28;20203;-85
2023/03/07 08:40:15;;;;;;;10.80;6.40;;;;;;;12.49;54.49;93857.38;5056519;28;20230;-86
2023/03/07 08:42:42;;;;;;;15.20;6.00;;;;;;;12.49;54.70;93856.59;5069006;28;20253;-79
2023/03/07 08:45:11;;;;;;;9.85;4.05;;;;;;;12.19;55.55;93851.72;5057222;28;20207;-79
2023/03/07 08:47:38;;;;;;;6.25;3.50;;;;;;;12.85;54.15;93852.63;5055002;28;20204;-84
2023/03/07 08:50:06;;;;;;;8.38;4.60;;;;;;;12.80;53.28;93857.22;5060854;28;20220;-83
2023/03/07 08:52:32;;;;;;;5.57;2.75;;;;;;;12.77;53.04;93852.50;5049883;28;20654;-79
2023/03/07 08:54:59;;;;;;;7.95;4.07;;;;;;;12.72;53.01;93850.06;5068078;28;20195;-85
2023/03/07 08:57:26;;;;;;;17.77;7.32;;;;;;;12.19;54.62;93859.09;5067299;28;20203;-81
2023/03/07 08:59:53;;;;;;;13.35;4.75;;;;;;;12.49;54.51;93857.38;5056958;28;20257;-80
2023/03/07 09:02:21;;;;;;;9.23;4.68;;;;;;;12.20;54.09;93863.38;5067717;28;20311;-80
2023/03/07 09:04:48;;;;;;;10.23;4.57;;;;;;;12.52;53.90;93848.53;5057323;28;20227;-80
2023/03/07 09:07:14;;;;;;;13.20;6.85;;;;;;;12.55;53.57;93845.09;5052714;28;20203;-79
2023/03/07 09:09:41;;;;;;;12.13;6.68;;;;;;;12.67;53.42;93847.66;5056988;28;20674;-80
2023/03/07 09:12:08;;;;;;;10.18;6.22;;;;;;;12.35;52.86;93841.59;5054732;28;20219;-79
2023/03/07 09:14:35;;;;;;;9.98;5.60;;;;;;;12.37;53.62;93849.38;5059991;28;20203;-80
2023/03/07 09:17:03;;;;;;;14.43;6.68;;;;;;;12.72;52.83;93844.63;5062015;28;20701;-80
2023/03/07 09:19:31;;;;;;;11.57;6.22;;;;;;;12.63;52.17;93844.06;5057451;28;20685;-80
2023/03/07 09:21:58;;;;;;;12.63;5.95;;;;;;;13.02;51.15;93846.72;5052698;28;20227;-81
2023/03/07 09:24:25;;;;;;;10.98;5.75;;;;;;;12.87;50.86;93844.88;5048604;28;20251;-81
2023/03/07 09:26:52;;;;;;;8.43;5.70;;;;;;;13.04;50.17;93841.72;5048445;28;20235;-79
2023/03/07 09:29:19;;;;;;;8.75;5.28;;;;;;;13.37;49.84;93836.47;5048813;28;20203;-81
2023/03/07 09:31:45;;;;;;;10.02;4.97;;;;;;;13.44;49.20;93827.63;5047776;28;20208;-82
2023/03/07 09:34:12;;;;;;;9.10;5.18;;;;;;;13.21;49.08;93832.31;5060066;28;20230;-79
2023/03/07 09:36:40;;;;;;;13.30;6.00;;;;;;;13.22;49.49;93836.59;5055069;28;20273;-86
2023/03/07 09:39:07;;;;;;;8.60;5.68;;;;;;;13.23;49.71;93830.81;5057038;28;20253;-82
2023/03/07 09:41:52;;;;;;;12.95;5.40;;;;;;;13.45;49.12;93826.50;5052956;28;20673;-81
2023/03/07 09:44:32;;;;;;;8.40;5.22;;;;;;;13.15;48.43;93829.88;5055440;28;20196;-79
2023/03/07 09:47:12;;;;;;;10.25;5.35;;;;;;;13.38;48.94;93821.72;5068200;28;20255;-79
2023/03/07 09:49:46;;;;;;;9.20;5.32;;;;;;;13.15;48.50;93820.94;5063981;28;20231;-82
2023/03/07 09:52:17;;;;;;;7.22;4.80;;;;;;;13.50;48.30;93813.38;5061482;28;20280;-81
2023/03/07 09:54:48;;;;;;;13.77;5.80;;;;;;;13.82;47.40;93802.94;5061759;28;20256;-81
2023/03/07 09:57:21;;;;;;;7.35;5.10;;;;;;;14.27;46.64;93805.84;5061272;28;20264;-81
2023/03/07 09:59:51;;;;;;;10.02;4.80;;;;;;;13.74;46.47;93805.94;5058286;28;20203;-81
2023/03/07 10:02:26;;;;;;;8.27;4.93;;;;;;;13.52;47.00;93800.19;5073627;28;20219;-81
2023/03/07 10:04:59;;;;;;;8.60;4.72;;;;;;;13.75;46.68;93807.50;5061902;28;20231;-81
2023/03/07 10:07:28;;;;;;;8.13;4.78;;;;;;;13.46;46.81;93796.19;5069909;28;20207;-81
2023/03/07 10:09:59;;;;;;;8.90;4.70;;;;;;;13.25;46.87;93795.88;5059862;28;20740;-82
2023/03/07 10:12:56;;;;;;;8.88;4.13;;;;;;;13.52;47.12;93783.88;5057622;28;20300;-80
2023/03/07 10:15:44;;;;;;;8.48;4.35;;;;;;;13.44;46.73;93781.38;5058910;28;20264;-80
2023/03/07 10:18:48;;;;;;;6.32;4.13;;;;;;;13.86;45.58;93771.09;5059511;28;20263;-80
2023/03/07 10:21:25;;;;;;;5.82;3.97;;;;;;;13.78;44.70;93779.56;5065790;28;20326;-87
2023/03/07 10:24:23;;;;;;;5.65;3.90;;;;;;;13.71;45.15;93774.78;5061717;28;20234;-82
2023/03/07 10:26:59;;;;;;;6.82;3.45;;;;;;;13.70;44.82;93777.88;5056040;28;20245;-79
2023/03/07 10:29:31;;;;;;;5.85;3.45;;;;;;;13.92;44.49;93766.13;5053079;28;20225;-83
2023/03/07 10:32:14;;;;;;;6.18;3.67;;;;;;;14.05;44.53;93762.00;5067041;28;20195;-81
2023/03/07 10:34:41;;;;;;;5.13;3.47;;;;;;;14.09;43.66;93772.94;5079351;28;20198;-81
2023/03/07 10:37:14;;;;;;;5.00;3.67;;;;;;;14.00;43.62;93759.59;5064999;28;20257;-86
2023/03/07 10:39:46;;;;;;;7.05;3.45;;;;;;;14.27;44.16;93752.16;5068974;28;20229;-82
2023/03/07 10:42:16;;;;;;;5.72;3.13;;;;;;;14.43;42.59;93749.25;5063635;28;20199;-81
2023/03/07 10:44:46;;;;;;;5.45;3.08;;;;;;;14.36;42.87;93738.22;5058935;28;20264;-80
2023/03/07 10:47:20;;;;;;;4.80;2.88;;;;;;;14.52;42.27;93730.63;5071679;28;20205;-82
2023/03/07 10:49:49;;;;;;;6.65;2.80;;;;;;;15.02;41.58;93723.72;5058556;28;20449;-81
2023/03/07 10:52:28;;;;;;;5.05;2.95;;;;;;;14.98;41.39;93725.63;5071037;28;20624;-81
2023/03/07 10:55:12;;;;;;;6.25;2.92;;;;;;;15.69;40.62;93714.44;5059199;28;20206;-81
2023/03/07 10:57:38;;;;;;;5.03;3.00;;;;;;;16.04;40.63;93697.44;5066662;28;20257;-81
2023/03/07 11:00:15;;;;;;;4.15;2.50;;;;;;;16.00;39.76;93697.41;5050815;28;20204;-79
2023/03/07 11:02:44;;;;;;;6.43;3.20;;;;;;;15.14;40.23;93700.81;5063921;28;20266;-81
2023/03/07 11:05:25;;;;;;;5.50;3.00;;;;;;;15.39;40.70;93693.56;5063201;28;20195;-81
2023/03/07 11:07:52;;;;;;;4.25;2.33;;;;;;;15.61;40.11;93689.81;5063781;28;20222;-78
2023/03/07 11:10:34;;;;;;;4.43;1.92;;;;;;;15.58;38.70;93682.38;5051276;28;20207;-81
2023/03/07 11:13:08;;;;;;;3.85;2.20;;;;;;;16.07;38.71;93678.31;5061109;28;20203;-81
2023/03/07 11:15:34;;;;;;;4.25;2.00;;;;;;;16.51;37.42;93667.13;5070945;28;20286;-81
2023/03/07 11:18:01;;;;;;;2.88;1.92;;;;;;;15.78;37.39;93654.78;5070811;28;20234;-76
2023/03/07 11:20:49;;;;;;;4.05;1.80;;;;;;;15.44;38.05;93665.94;5057256;28;20790;-80
2023/03/07 11:23:22;;;;;;;4.70;2.08;;;;;;;15.64;38.90;93658.25;5057229;28;20235;-81
2023/03/07 11:25:54;;;;;;;4.70;2.00;;;;;;;16.24;38.38;93653.00;5061941;28;20287;-82
2023/03/07 11:28:27;;;;;;;4.30;1.90;;;;;;;16.21;36.85;93642.84;5057034;28;20230;-80
2023/03/07 11:31:02;;;;;;;4.97;1.60;;;;;;;16.17;36.55;93647.50;5059728;28;20589;-81
2023/03/07 11:33:44;;;;;;;2.40;1.85;;;;;;;16.26;37.39;93634.25;5050199;28;20261;-80
2023/03/07 11:36:15;;;;;;;4.40;2.35;;;;;;;16.88;35.47;93644.09;5050491;28;20222;-85
2023/03/07 11:38:53;;;;;;;3.13;1.55;;;;;;;16.82;35.15;93638.25;5057702;28;20217;-82
2023/03/07 11:41:27;;;;;;;4.00;1.80;;;;;;;17.04;35.99;93645.28;5056866;28;20203;-81